24 september 2022

Tijd Code Weer Temp. Zicht Plafond Wind METAR/SPECI
17:50
V
15 °C 10 km+ - Var Var 3 kt METAR EDLN 241550Z VRB03KT CAVOK 15/13 Q1012
17:20
V
15 °C 10 km+ - 060° 060° 3 kt METAR EDLN 241520Z 06003KT 9999 -RA SCT035 15/13 Q1012
16:50
V
16 °C 10 km+ 3.500 ft 050° 050° 3 kt METAR EDLN 241450Z 05003KT 9999 -RA SCT026 BKN035 16/12 Q1012
16:20
V
16 °C 10 km+ - Var Var 2 kt METAR EDLN 241420Z VRB02KT 9999 SCT026 16/11 Q1012
15:50
V
17 °C 10 km+ - Var 000° 0 kt METAR EDLN 241350Z 00000KT 9999 SCT035 17/11 Q1012
15:20
V
16 °C 10 km+ - 350° 350° 2 kt METAR EDLN 241320Z 35002KT 9999 FEW035 16/11 Q1012
14:50
V
16 °C 10 km+ - Var Var 1 kt METAR EDLN 241250Z VRB01KT 9999 FEW034 16/11 Q1012
14:20
V
16 °C 10 km+ - Var Var 2 kt METAR EDLN 241220Z VRB02KT 9999 FEW029 16/11 Q1012
13:50
V
16 °C 10 km+ - 320° 320° 5 kt METAR EDLN 241150Z 32005KT 9999 SCT029 16/11 Q1013
13:20
M
16 °C 10 km+ 2.900 ft 290° 290° 4 kt METAR EDLN 241120Z 29004KT 200V350 9999 FEW025 BKN029 16/12 Q1013
12:50
M
17 °C 10 km+ 2.900 ft 260° 260° 4 kt METAR EDLN 241050Z 26004KT 200V320 9999 BKN029 17/10 Q1013
12:20
V
17 °C 10 km+ - Var Var 1 kt METAR EDLN 241020Z VRB01KT 9999 SCT027 17/11 Q1013
11:50
V
17 °C 10 km+ - 150° 150° 3 kt METAR EDLN 240950Z 15003KT 090V220 9999 FEW049 17/11 Q1013
11:20
V
16 °C 10 km+ - 130° 130° 3 kt METAR EDLN 240920Z 13003KT 080V190 9999 FEW047 16/12 Q1013
10:50
V
15 °C 10 km+ - Var Var 2 kt METAR EDLN 240850Z VRB02KT CAVOK 15/12 Q1013
10:20
V
14 °C 10 km+ - Var Var 2 kt METAR EDLN 240820Z VRB02KT CAVOK 14/12 Q1013
09:50
V
14 °C 10 km+ - Var Var 2 kt METAR EDLN 240750Z VRB02KT CAVOK 14/12 Q1012
09:20
V
14 °C 10 km+ - Var Var 1 kt METAR EDLN 240720Z VRB01KT 9999 FEW039 14/12 Q1012
08:50
V
13 °C 10 km+ - Var Var 1 kt METAR EDLN 240650Z VRB01KT 9999 FEW035 13/11 Q1012
08:20
V
12 °C 10 km+ - 160° 160° 2 kt METAR EDLN 240620Z 16002KT 9999 -RA NSC 12/11 Q1012
07:50
V
12 °C 10 km+ - Var Var 2 kt METAR EDLN 240550Z VRB02KT CAVOK 12/11 Q1012
07:20
V
12 °C 10 km+ 6.500 ft 180° 180° 2 kt METAR EDLN 240520Z AUTO 18002KT 9999 // FEW048/// BKN065/// BKN084/// 12/11 Q1012
06:50
V
12 °C 10 km+ 9.200 ft Var Var 2 kt METAR EDLN 240450Z AUTO VRB02KT 9999 // FEW067/// BKN092/// 12/11 Q1012
06:20
V
11 °C 10 km+ 11.000 ft Var Var 1 kt METAR EDLN 240420Z AUTO VRB01KT 9999 // FEW073/// BKN110/// BKN150/// 11/11 Q1012
05:50
V
12 °C 10 km+ 12.000 ft Var Var 2 kt METAR EDLN 240350Z AUTO VRB02KT 9999 // FEW045/// SCT100/// BKN120/// 12/11 Q1012
05:20
V
11 °C 10 km+ 9.100 ft Var Var 1 kt METAR EDLN 240320Z AUTO VRB01KT 9999 // FEW046/// BKN091/// OVC150/// 11/11 Q1012
04:50
V
12 °C 10 km+ 9.200 ft 100° 100° 2 kt METAR EDLN 240250Z AUTO 10002KT 9999 // FEW053/// BKN092/// OVC150/// 12/11 Q1012
04:20
V
12 °C 10 km+ 5.700 ft Var Var 1 kt METAR EDLN 240220Z AUTO VRB01KT 9999 // FEW047/// BKN057/// OVC170/// 12/11 Q1013
03:50
V
12 °C 10 km+ 5.700 ft 140° 140° 1 kt METAR EDLN 240150Z AUTO 14001KT 9999 // BKN057/// OVC110/// 12/11 Q1013
03:20
V
12 °C 10 km+ 6.000 ft Var Var 1 kt METAR EDLN 240120Z AUTO VRB01KT 9999 // BKN060/// BKN097/// OVC110/// 12/11 Q1013
02:50
V
12 °C 10 km+ 8.300 ft Var Var 1 kt METAR EDLN 240050Z AUTO VRB01KT 9999 // SCT065/// BKN083/// OVC110/// 12/11 Q1013
02:20
V
12 °C 10 km+ 7.700 ft 200° 200° 1 kt METAR EDLN 240020Z AUTO 20001KT 9999 // FEW058/// OVC077/// 12/11 Q1013
01:50
V
12 °C 10 km+ 6.900 ft Var 000° 0 kt METAR EDLN 232350Z AUTO 00000KT 9999 // SCT059/// BKN069/// OVC080/// 12/11 Q1013
01:20
V
13 °C 10 km+ 5.800 ft Var Var 2 kt METAR EDLN 232320Z AUTO VRB02KT 9999 // FEW047/// OVC058/// 13/11 Q1014
00:50
V
13 °C 10 km+ 5.900 ft Var Var 2 kt METAR EDLN 232250Z AUTO VRB02KT 9999 // FEW032/// BKN059/// OVC160/// 13/11 Q1014
00:20
V
14 °C 10 km+ 8.900 ft 290° 290° 4 kt METAR EDLN 232220Z AUTO 29004KT 250V310 9999 // FEW032/// OVC089/// 14/11 Q1014

23 september 2022

Tijd Code Weer Temp. Zicht Plafond Wind METAR/SPECI
23:50
V
13 °C 10 km+ 10.000 ft Var Var 2 kt METAR EDLN 232150Z AUTO VRB02KT 9999 // SCT032/// SCT041/// OVC100/// 13/11 Q1014
23:20
V
12 °C 10 km+ 11.000 ft 150° 150° 1 kt METAR EDLN 232120Z AUTO 15001KT 9999 // SCT040/// BKN110/// OVC130/// 12/11 Q1014
22:50
V
12 °C 10 km+ 13.000 ft 110° 110° 2 kt METAR EDLN 232050Z AUTO 11002KT 9999 // OVC130/// 12/11 Q1014
22:20
V
12 °C 10 km+ 13.000 ft Var 000° 0 kt METAR EDLN 232020Z AUTO 00000KT 9999 // FEW046/// OVC130/// 12/11 Q1014
21:50
V
13 °C 10 km+ 4.200 ft 140° 140° 1 kt METAR EDLN 231950Z AUTO 14001KT 9999 // BKN042/// OVC120/// 13/11 Q1014
21:20
V
13 °C 10 km+ 4.500 ft 140° 140° 1 kt METAR EDLN 231920Z AUTO 14001KT 9999 // BKN045/// OVC130/// 13/11 Q1014
20:50
V
12 °C 10 km+ 15.000 ft 110° 110° 1 kt METAR EDLN 231850Z AUTO 11001KT 9999 // FEW046/// OVC150/// 12/11 Q1014
20:20
V
12 °C 10 km+ - 120° 120° 1 kt METAR EDLN 231820Z 12001KT CAVOK 12/10 Q1014
19:50
V
13 °C 10 km+ - Var 000° 0 kt METAR EDLN 231750Z 00000KT CAVOK 13/11 Q1014
19:20
V
15 °C 10 km+ - Var Var 1 kt METAR EDLN 231720Z VRB01KT CAVOK 15/10 Q1014
18:50
V
16 °C 10 km+ - Var Var 2 kt METAR EDLN 231650Z VRB02KT CAVOK 16/09 Q1014
18:20
V
16 °C 10 km+ - Var Var 2 kt METAR EDLN 231620Z VRB02KT CAVOK 16/09 Q1014
17:50
V
17 °C 10 km+ - 230° 230° 3 kt METAR EDLN 231550Z 23003KT 180V290 CAVOK 17/08 Q1014
17:20
V
17 °C 10 km+ - 210° 210° 3 kt METAR EDLN 231520Z 21003KT 160V270 CAVOK 17/08 Q1014
16:50
V
18 °C 10 km+ - 200° 200° 4 kt METAR EDLN 231450Z 20004KT 170V250 CAVOK 18/08 Q1015
16:20
V
18 °C 10 km+ - 200° 200° 5 kt METAR EDLN 231420Z 20005KT 140V240 CAVOK 18/08 Q1015
15:50
V
18 °C 10 km+ - 230° 230° 3 kt METAR EDLN 231350Z 23003KT 190V270 CAVOK 18/08 Q1015
15:20
V
17 °C 10 km+ - 220° 220° 4 kt METAR EDLN 231320Z 22004KT 180V270 CAVOK 17/08 Q1015
14:50
V
18 °C 10 km+ - 220° 220° 4 kt METAR EDLN 231250Z 22004KT 170V250 CAVOK 18/08 Q1015
14:20
V
18 °C 10 km+ - 160° 160° 3 kt METAR EDLN 231220Z 16003KT 110V230 CAVOK 18/08 Q1015
13:50
V
18 °C 10 km+ - 190° 190° 3 kt METAR EDLN 231150Z 19003KT CAVOK 18/08 Q1016
13:20
V
18 °C 10 km+ - 170° 170° 4 kt METAR EDLN 231120Z 17004KT 110V220 CAVOK 18/08 Q1016
12:50
V
17 °C 10 km+ - 150° 150° 3 kt METAR EDLN 231050Z 15003KT 100V240 CAVOK 17/09 Q1016
12:20
V
16 °C 10 km+ - Var Var 3 kt METAR EDLN 231020Z VRB03KT CAVOK 16/09 Q1016
11:50
V
14 °C 10 km+ - 130° 130° 4 kt METAR EDLN 230950Z 13004KT 090V210 CAVOK 14/09 Q1017
11:20
V
13 °C 10 km+ - Var Var 2 kt METAR EDLN 230920Z VRB02KT CAVOK 13/09 Q1017
10:50
V
13 °C 10 km+ - 140° 140° 3 kt METAR EDLN 230850Z 14003KT 100V190 CAVOK 13/08 Q1017
10:20
V
12 °C 10 km+ - 120° 120° 3 kt METAR EDLN 230820Z 12003KT 100V200 CAVOK 12/09 Q1017
09:50
V
11 °C 10 km+ - 130° 130° 3 kt METAR EDLN 230750Z 13003KT CAVOK 11/08 Q1017
09:20
V
11 °C 10 km+ - 140° 140° 3 kt METAR EDLN 230720Z 14003KT CAVOK 11/08 Q1017
08:50
V
10 °C 10 km+ - 140° 140° 3 kt METAR EDLN 230650Z 14003KT CAVOK 10/08 Q1017
08:20
V
8 °C 10 km+ - 120° 120° 3 kt METAR EDLN 230620Z 12003KT CAVOK 08/07 Q1017
07:50
V
7 °C 10 km+ - 120° 120° 5 kt METAR EDLN 230550Z 12005KT CAVOK 07/06 Q1017
07:20
V
7 °C 10 km+ - 120° 120° 4 kt METAR EDLN 230520Z AUTO 12004KT 9999 // FEW240/// 07/05 Q1017
06:50
V
7 °C 10 km+ 24.000 ft 120° 120° 5 kt METAR EDLN 230450Z AUTO 12005KT 9999 // BKN240/// 07/06 Q1017
06:20
V
7 °C 10 km+ - 120° 120° 5 kt METAR EDLN 230420Z AUTO 12005KT 9999 // SCT240/// 07/06 Q1017
05:50
V
7 °C 10 km+ 24.000 ft 110° 110° 4 kt METAR EDLN 230350Z AUTO 11004KT 9999 // BKN240/// 07/06 Q1017
05:20
V
7 °C 10 km+ - 110° 110° 4 kt METAR EDLN 230320Z AUTO 11004KT 9999 // SCT240/// 07/06 Q1017
04:50
V
8 °C 10 km+ 24.000 ft 110° 110° 4 kt METAR EDLN 230250Z AUTO 11004KT 9999 // BKN240/// 08/06 Q1017
04:20
V
8 °C 10 km+ - 110° 110° 5 kt METAR EDLN 230220Z AUTO 11005KT 9999 // SCT240/// 08/07 Q1018
03:50
V
8 °C 10 km+ - 110° 110° 5 kt METAR EDLN 230150Z AUTO 11005KT 9999 // NCD 08/06 Q1018
03:20
V
8 °C 10 km+ - 100° 100° 5 kt METAR EDLN 230120Z AUTO 10005KT 9999 // NCD 08/07 Q1018
02:50
V
8 °C 10 km+ - 100° 100° 5 kt METAR EDLN 230050Z AUTO 10005KT 9999 // FEW250/// 08/06 Q1018
02:20
V
8 °C 10 km+ - 100° 100° 4 kt METAR EDLN 230020Z AUTO 10004KT 9999 // FEW250/// 08/06 Q1018
01:50
V
8 °C 10 km+ - 090° 090° 4 kt METAR EDLN 222350Z AUTO 09004KT 9999 // NCD 08/07 Q1018
01:20
V
8 °C 10 km+ - 100° 100° 5 kt METAR EDLN 222320Z AUTO 10005KT 9999 // SCT240/// 08/06 Q1019
00:50
V
9 °C 10 km+ - 100° 100° 4 kt METAR EDLN 222250Z AUTO 10004KT 9999 // SCT250/// 09/06 Q1019
00:20
V
8 °C 10 km+ - 100° 100° 5 kt METAR EDLN 222220Z AUTO 10005KT 9999 // NCD 08/07 Q1019

22 september 2022

Tijd Code Weer Temp. Zicht Plafond Wind METAR/SPECI
23:50
V
8 °C 10 km+ - 110° 110° 3 kt METAR EDLN 222150Z AUTO 11003KT 9999 // NCD 08/07 Q1019
23:20
V
9 °C 10 km+ - 130° 130° 2 kt METAR EDLN 222120Z AUTO 13002KT 9999 // NCD 09/07 Q1019
22:50
V
7 °C 10 km+ - 100° 100° 3 kt METAR EDLN 222050Z AUTO 10003KT 9999 // NCD 07/07 Q1019
22:20
V
8 °C 10 km+ - 110° 110° 2 kt METAR EDLN 222020Z AUTO 11002KT 9999 // NCD 08/07 Q1019
21:50
V
8 °C 10 km+ - Var 000° 0 kt METAR EDLN 221950Z AUTO 00000KT 9999 // NCD 08/07 Q1019
21:20
V
9 °C 10 km+ - Var 000° 0 kt METAR EDLN 221920Z 00000KT CAVOK 09/08 Q1020
20:50
V
10 °C 10 km+ - 100° 100° 2 kt METAR EDLN 221850Z 10002KT CAVOK 10/08 Q1020
20:20
V
10 °C 10 km+ - 320° 320° 1 kt METAR EDLN 221820Z 32001KT CAVOK 10/08 Q1020
19:50
V
11 °C 10 km+ - Var Var 1 kt METAR EDLN 221750Z VRB01KT CAVOK 11/09 Q1020
19:20
V
13 °C 10 km+ - 090° 090° 2 kt METAR EDLN 221720Z 09002KT CAVOK 13/09 Q1020
18:50
V
16 °C 10 km+ - 120° 120° 4 kt METAR EDLN 221650Z 12004KT CAVOK 16/06 Q1020
18:20
V
17 °C 10 km+ - 110° 110° 6 kt METAR EDLN 221620Z 11006KT CAVOK 17/07 Q1020
17:50
V
18 °C 10 km+ - 120° 120° 5 kt METAR EDLN 221550Z 12005KT 090V160 CAVOK 18/06 Q1020
17:20
V
18 °C 10 km+ - 140° 140° 4 kt METAR EDLN 221520Z 14004KT 110V190 CAVOK 18/06 Q1020
16:50
V
18 °C 10 km+ - 130° 130° 5 kt METAR EDLN 221450Z 13005KT 090V180 CAVOK 18/06 Q1021
Oudere gegevens

Met cookies volgen wij en derde partijen jouw internetgedrag binnen onze site. Als je verdergaat gaan we ervan uit dat je dit goedvindt. Meer info